Time;durP1;ratioP1;P1;durP2;ratioP2;P2;SDS_P1;SDS_P2;PMS_P1;PMS_P2;Temp;Humidity;BMP_temperature;BMP_pressure;BME280_temperature;BME280_humidity;BME280_pressure;Samples;Min_cycle;Max_cycle;Signal;HPM_P1;HPM_P2
2022/08/22 00:02:12;;;;;;;4.82;3.22;;;20.40;77.60;;;;;;5013732;28;20030;-10
2022/08/22 00:04:38;;;;;;;4.65;2.55;;;20.40;77.50;;;;;;5013721;28;20073;-10
2022/08/22 00:07:31;;;;;;;4.20;2.55;;;20.30;77.60;;;;;;5013742;28;20057;-10
2022/08/22 00:10:11;;;;;;;4.35;2.83;;;20.30;77.60;;;;;;5013569;28;20042;-11
2022/08/22 00:12:48;;;;;;;3.90;2.50;;;20.30;77.90;;;;;;5013573;28;20030;-11
2022/08/22 00:15:24;;;;;;;3.33;2.75;;;20.20;77.80;;;;;;5013310;28;20077;-10
2022/08/22 00:17:59;;;;;;;4.63;2.95;;;20.20;77.80;;;;;;5055487;28;20031;-10
2022/08/22 00:20:34;;;;;;;4.60;2.63;;;20.20;77.80;;;;;;5055499;28;20057;-10
2022/08/22 00:23:18;;;;;;;4.78;3.15;;;20.20;78.00;;;;;;5054853;28;20025;-10
2022/08/22 00:25:43;;;;;;;;;;;20.20;78.30;;;;;;5055508;28;20035;-11
2022/08/22 00:28:35;;;;;;;5.20;2.70;;;20.20;78.80;;;;;;5054891;28;19999;-10
2022/08/22 00:31:25;;;;;;;4.53;2.47;;;20.10;78.30;;;;;;5054728;28;20029;-11
2022/08/22 00:34:03;;;;;;;4.35;2.33;;;20.10;78.20;;;;;;5054863;28;20377;-10
2022/08/22 00:36:37;;;;;;;3.05;2.75;;;20.10;78.20;;;;;;5054389;28;20037;-10
2022/08/22 00:39:06;;;;;;;5.07;2.80;;;20.10;78.30;;;;;;5054584;28;20029;-10
2022/08/22 00:42:05;;;;;;;4.18;3.13;;;20.00;78.60;;;;;;5054976;28;20118;-11
2022/08/22 00:44:41;;;;;;;3.97;2.60;;;20.00;78.50;;;;;;5054576;28;20025;-11
2022/08/22 00:47:10;;;;;;;3.88;2.80;;;19.90;78.30;;;;;;5054454;28;20270;-11
2022/08/22 00:50:27;;;;;;;3.88;3.05;;;19.90;78.50;;;;;;5054990;28;20552;-10
2022/08/22 00:52:53;;;;;;;4.55;3.35;;;19.90;78.70;;;;;;5054291;28;20052;-11
2022/08/22 00:56:01;;;;;;;4.20;3.22;;;19.90;78.60;;;;;;5054676;28;20032;-11
2022/08/22 00:58:53;;;;;;;3.88;2.80;;;19.90;79.20;;;;;;5012621;28;20045;-10
2022/08/22 01:01:29;;;;;;;3.28;2.53;;;19.90;79.20;;;;;;5012586;28;20034;-10
2022/08/22 01:04:30;;;;;;;4.60;2.85;;;19.90;78.80;;;;;;5012453;28;20069;-10
2022/08/22 01:07:19;;;;;;;7.07;3.83;;;19.80;78.70;;;;;;5012273;28;20026;-11
2022/08/22 01:10:00;;;;;;;3.85;2.60;;;19.70;78.90;;;;;;4996121;28;20022;-11
2022/08/22 01:12:44;;;;;;;2.53;2.20;;;19.70;79.00;;;;;;5013001;28;20491;-10
2022/08/22 01:15:35;;;;;;;4.43;2.50;;;19.60;78.90;;;;;;5012101;28;20029;-10
2022/08/22 01:18:26;;;;;;;3.92;2.80;;;19.60;78.60;;;;;;5011903;28;20461;-10
2022/08/22 01:21:03;;;;;;;5.38;3.10;;;19.60;78.70;;;;;;5012181;28;20037;-11
2022/08/22 01:23:55;;;;;;;4.80;3.10;;;19.50;79.00;;;;;;5012265;28;20026;-10
2022/08/22 01:26:54;;;;;;;2.90;2.60;;;19.50;79.20;;;;;;5012197;28;20461;-10
2022/08/22 01:29:38;;;;;;;4.63;2.97;;;19.40;79.10;;;;;;5011986;28;20026;-11
2022/08/22 01:32:30;;;;;;;4.63;2.80;;;19.40;79.10;;;;;;5012024;28;20030;-11
2022/08/22 01:35:21;;;;;;;4.00;3.03;;;19.30;79.20;;;;;;5050474;28;20032;-10
2022/08/22 01:38:16;;;;;;;4.78;3.00;;;19.30;79.10;;;;;;5054080;28;20075;-10
2022/08/22 01:40:58;;;;;;;3.42;2.53;;;19.20;79.20;;;;;;5053678;28;20031;-10
2022/08/22 01:43:45;;;;;;;5.97;3.20;;;19.20;79.30;;;;;;5054086;28;20100;-11
2022/08/22 01:46:32;;;;;;;5.78;3.97;;;19.10;79.60;;;;;;5053468;28;20123;-11
2022/08/22 01:49:25;;;;;;;4.90;3.95;;;19.10;79.80;;;;;;5052654;28;20032;-10
2022/08/22 01:52:29;;;;;;;6.00;3.40;;;19.00;79.90;;;;;;5048728;28;20037;-11
2022/08/22 01:55:23;;;;;;;4.60;3.17;;;18.90;80.10;;;;;;5053761;28;20040;-11
2022/08/22 01:58:14;;;;;;;4.38;3.20;;;18.90;80.20;;;;;;5053576;28;20036;-11
2022/08/22 02:01:06;;;;;;;4.57;2.85;;;18.80;80.30;;;;;;5047524;28;20037;-10
2022/08/22 02:03:36;;;;;;;4.65;3.10;;;18.80;80.30;;;;;;5053310;28;20397;-11
2022/08/22 02:06:15;;;;;;;3.80;2.63;;;18.80;80.50;;;;;;5053500;28;20029;-10
2022/08/22 02:09:22;;;;;;;5.57;2.95;;;18.80;80.40;;;;;;5053816;28;20025;-12
2022/08/22 02:12:14;;;;;;;3.38;2.90;;;18.80;80.50;;;;;;5045811;28;20029;-11
2022/08/22 02:15:18;;;;;;;3.78;2.95;;;18.70;80.70;;;;;;5050933;28;20032;-11
2022/08/22 02:18:09;;;;;;;3.42;2.83;;;18.70;80.60;;;;;;5011491;28;20029;-11
2022/08/22 02:21:07;;;;;;;3.97;3.10;;;18.70;80.60;;;;;;5011287;28;20026;-11
2022/08/22 02:23:51;;;;;;;7.15;3.75;;;18.60;80.60;;;;;;5011392;28;20033;-11
2022/08/22 02:26:45;;;;;;;6.18;4.07;;;18.60;81.20;;;;;;5011619;28;20501;-11
2022/08/22 02:29:40;;;;;;;;;;;18.60;82.30;;;;;;5011468;28;20066;-11
2022/08/22 02:32:18;;;;;;;3.33;2.58;;;18.50;83.40;;;;;;4972199;28;20283;-11
2022/08/22 02:35:00;;;;;;;6.03;4.25;;;18.40;81.30;;;;;;4972368;28;20527;-11
2022/08/22 02:37:54;;;;;;;6.53;4.47;;;18.40;81.20;;;;;;4956199;28;20027;-11
2022/08/22 02:41:00;;;;;;;4.30;3.30;;;18.40;81.40;;;;;;4972132;28;20039;-12
2022/08/22 02:43:48;;;;;;;5.72;3.83;;;18.40;81.70;;;;;;4961516;28;20035;-11
2022/08/22 02:46:31;;;;;;;3.15;2.85;;;18.40;81.50;;;;;;4972778;28;20133;-11
2022/08/22 02:49:20;;;;;;;3.00;2.47;;;18.40;81.60;;;;;;4972771;28;20042;-10
2022/08/22 02:52:49;;;;;;;3.53;2.97;;;18.40;81.30;;;;;;4972102;28;20638;-11
2022/08/22 02:55:38;;;;;;;5.75;3.83;;;18.40;81.70;;;;;;4991284;28;20163;-11
2022/08/22 02:58:31;;;;;;;5.35;3.50;;;18.40;81.70;;;;;;4991408;28;20030;-11
2022/08/22 03:00:57;;;;;;;4.72;3.20;;;18.40;81.60;;;;;;4993763;28;20039;-11
2022/08/22 03:03:23;;;;;;;3.80;3.08;;;18.30;81.70;;;;;;4995497;28;20407;-11
2022/08/22 03:06:01;;;;;;;7.82;3.85;;;18.40;81.80;;;;;;4995776;28;20018;-11
2022/08/22 03:08:34;;;;;;;8.35;5.35;;;18.30;81.70;;;;;;5023987;28;20041;-11
2022/08/22 03:11:41;;;;;;;5.50;3.40;;;18.30;81.90;;;;;;5054420;28;20116;-11
2022/08/22 03:14:34;;;;;;;4.38;2.97;;;18.20;82.60;;;;;;4995016;28;20121;-11
2022/08/22 03:17:12;;;;;;;3.30;2.90;;;18.20;82.10;;;;;;4959618;28;20165;-11
2022/08/22 03:19:55;;;;;;;4.32;3.30;;;18.20;81.90;;;;;;4995579;28;20065;-10
2022/08/22 03:22:51;;;;;;;5.78;3.05;;;18.20;82.00;;;;;;4994960;28;20415;-10
2022/08/22 03:25:17;;;;;;;4.88;2.92;;;18.20;82.00;;;;;;4993520;28;20040;-11
2022/08/22 03:27:50;;;;;;;3.75;3.05;;;18.10;82.20;;;;;;4995236;28;20031;-11
2022/08/22 03:30:40;;;;;;;6.63;3.40;;;18.10;82.30;;;;;;5004230;28;20040;-11
2022/08/22 03:33:20;;;;;;;7.57;3.92;;;18.00;82.70;;;;;;5014067;28;20034;-11
2022/08/22 03:35:45;;;;;;;4.03;3.08;;;18.00;83.20;;;;;;5014230;28;20034;-11
2022/08/22 03:38:32;;;;;;;6.60;3.90;;;17.90;83.30;;;;;;5014259;28;20033;-11
2022/08/22 03:41:25;;;;;;;8.60;4.90;;;17.90;84.40;;;;;;5013996;28;20045;-12
2022/08/22 03:43:59;;;;;;;7.47;3.83;;;17.90;84.60;;;;;;5018251;28;20541;-11
2022/08/22 03:46:51;;;;;;;4.55;3.60;;;17.90;83.70;;;;;;5056375;28;20116;-11
2022/08/22 03:49:28;;;;;;;5.85;4.00;;;17.90;83.40;;;;;;5056089;28;20472;-11
2022/08/22 03:52:05;;;;;;;5.20;3.85;;;17.90;83.20;;;;;;5055924;28;20064;-11
2022/08/22 03:54:34;;;;;;;5.38;4.30;;;17.90;83.20;;;;;;5054436;28;20098;-11
2022/08/22 03:57:29;;;;;;;5.30;3.70;;;17.90;83.40;;;;;;5054113;28;20037;-11
2022/08/22 04:00:24;;;;;;;5.60;4.40;;;17.90;83.20;;;;;;5055811;28;20044;-11
2022/08/22 04:03:08;;;;;;;4.80;3.47;;;17.90;83.20;;;;;;5055573;28;20025;-11
2022/08/22 04:06:01;;;;;;;6.20;3.63;;;17.90;83.10;;;;;;5055409;28;20038;-10
2022/08/22 04:08:47;;;;;;;6.55;3.67;;;17.90;83.00;;;;;;5055435;28;20029;-11
2022/08/22 04:11:41;;;;;;;6.60;4.00;;;17.90;83.00;;;;;;5033457;28;20025;-11
2022/08/22 04:14:25;;;;;;;5.90;4.18;;;18.00;82.90;;;;;;5055170;28;20032;-11
2022/08/22 04:17:19;;;;;;;5.50;4.18;;;18.00;83.90;;;;;;5054877;28;20119;-11
2022/08/22 04:20:09;;;;;;;7.78;4.15;;;17.90;83.50;;;;;;5055497;28;20067;-10
2022/08/22 04:22:49;;;;;;;5.60;3.67;;;17.90;83.70;;;;;;5055469;28;20025;-11
2022/08/22 04:25:46;;;;;;;5.00;3.53;;;17.90;83.30;;;;;;5055354;28;20029;-11
2022/08/22 04:28:24;;;;;;;7.00;4.80;;;17.90;83.20;;;;;;5055020;28;20393;-10
2022/08/22 04:31:02;;;;;;;4.93;3.83;;;17.90;83.20;;;;;;5055185;28;20029;-11
2022/08/22 04:33:51;;;;;;;8.32;4.38;;;17.90;83.10;;;;;;5054963;28;20029;-11
2022/08/22 04:36:27;;;;;;;7.80;5.35;;;17.90;83.00;;;;;;5055113;28;20095;-11
2022/08/22 04:39:09;;;;;;;7.07;4.47;;;17.90;83.00;;;;;;5054913;28;20024;-11
2022/08/22 04:41:49;;;;;;;5.28;3.50;;;17.90;83.10;;;;;;5055013;28;20024;-11
2022/08/22 04:44:38;;;;;;;5.18;3.20;;;17.90;83.20;;;;;;5054970;28;20090;-10
2022/08/22 04:47:28;;;;;;;6.20;4.25;;;17.90;83.10;;;;;;5054461;28;20060;-11
2022/08/22 04:50:03;;;;;;;6.40;4.03;;;18.00;83.10;;;;;;5055004;28;20033;-11
2022/08/22 04:52:47;;;;;;;3.97;3.05;;;17.90;82.90;;;;;;5054551;28;20135;-11
2022/08/22 04:55:55;;;;;;;5.88;3.88;;;18.00;82.70;;;;;;5054731;28;20037;-11
2022/08/22 04:58:24;;;;;;;8.77;5.65;;;18.10;83.30;;;;;;5048708;28;20029;-13
2022/08/22 05:00:58;;;;;;;6.03;4.50;;;18.10;84.50;;;;;;5054310;28;20028;-11
2022/08/22 05:03:27;;;;;;;5.75;3.97;;;18.20;84.50;;;;;;5054333;28;20032;-11
2022/08/22 05:05:57;;;;;;;7.63;4.50;;;18.30;83.90;;;;;;5054789;28;20025;-11
2022/08/22 05:08:29;;;;;;;5.47;4.22;;;18.40;84.40;;;;;;5053334;28;20108;-11
2022/08/22 05:10:57;;;;;;;4.67;4.00;;;18.40;84.20;;;;;;5054078;28;20083;-10
2022/08/22 05:13:42;;;;;;;5.40;3.97;;;18.40;83.40;;;;;;5054198;28;20021;-10
2022/08/22 05:16:19;;;;;;;5.82;3.58;;;18.50;82.70;;;;;;5054439;28;20036;-11
2022/08/22 05:18:50;;;;;;;6.25;4.22;;;18.60;82.50;;;;;;5054095;28;20031;-11
2022/08/22 05:21:22;;;;;;;7.93;4.50;;;18.70;82.80;;;;;;5054245;28;20102;-12
2022/08/22 05:23:54;;;;;;;6.07;4.60;;;18.70;82.40;;;;;;5053836;28;20035;-11
2022/08/22 05:26:21;;;;;;;7.40;3.73;;;18.90;82.70;;;;;;5054250;28;20033;-10
2022/08/22 05:28:55;;;;;;;6.68;4.10;;;18.90;82.70;;;;;;5053907;28;20029;-13
2022/08/22 05:31:26;;;;;;;5.25;3.80;;;19.10;81.90;;;;;;5054136;28;20056;-11
2022/08/22 05:34:04;;;;;;;6.38;4.30;;;19.20;81.60;;;;;;5053819;28;20028;-12
2022/08/22 05:36:42;;;;;;;6.80;4.30;;;19.30;81.10;;;;;;5053916;28;20041;-11
2022/08/22 05:39:13;;;;;;;9.93;4.93;;;19.40;81.20;;;;;;5053527;28;20362;-11
2022/08/22 05:41:40;;;;;;;5.97;4.30;;;19.50;80.80;;;;;;5053652;28;20373;-11
2022/08/22 05:44:20;;;;;;;11.13;5.57;;;19.60;80.40;;;;;;5052296;28;20024;-11
2022/08/22 05:47:11;;;;;;;7.15;4.70;;;19.70;80.10;;;;;;5053608;28;20503;-11
2022/08/22 05:49:46;;;;;;;6.88;4.03;;;19.80;80.00;;;;;;5053947;28;20040;-11
2022/08/22 05:52:39;;;;;;;7.93;4.05;;;19.90;80.00;;;;;;5053517;28;20025;-11
2022/08/22 05:55:27;;;;;;;11.95;5.10;;;19.90;79.70;;;;;;5053509;28;20033;-11
2022/08/22 05:58:26;;;;;;;5.85;3.88;;;20.10;79.20;;;;;;5053377;28;20059;-11
2022/08/22 06:01:04;;;;;;;6.50;3.88;;;20.20;79.00;;;;;;5053095;28;20029;-11
2022/08/22 06:03:39;;;;;;;6.60;3.72;;;20.40;78.40;;;;;;5053608;28;20032;-10
2022/08/22 06:06:16;;;;;;;7.80;3.97;;;20.40;78.20;;;;;;5053583;28;20366;-10
2022/08/22 06:08:52;;;;;;;4.60;3.67;;;20.50;78.30;;;;;;5053242;28;20151;-11
2022/08/22 06:11:36;;;;;;;5.97;4.00;;;20.60;77.60;;;;;;5053786;28;20410;-11
2022/08/22 06:14:32;;;;;;;5.35;3.85;;;20.80;77.30;;;;;;5053045;28;20493;-11
2022/08/22 06:17:09;;;;;;;6.15;3.83;;;20.90;76.80;;;;;;5052880;28;20029;-11
2022/08/22 06:19:44;;;;;;;5.70;3.60;;;21.00;76.70;;;;;;5053119;28;20565;-10
2022/08/22 06:22:13;;;;;;;5.50;3.40;;;21.10;76.50;;;;;;5053675;28;20025;-11
2022/08/22 06:24:40;;;;;;;6.65;4.30;;;21.20;76.10;;;;;;5052995;28;20061;-11
2022/08/22 06:27:11;;;;;;;4.93;4.18;;;21.40;75.80;;;;;;5053131;28;20100;-11
2022/08/22 06:29:48;;;;;;;6.03;3.88;;;21.40;75.40;;;;;;5052937;28;20082;-11
2022/08/22 06:32:29;;;;;;;4.07;3.60;;;21.50;75.50;;;;;;5053304;28;20036;-10
2022/08/22 06:35:06;;;;;;;6.28;4.30;;;21.60;75.70;;;;;;5053595;28;20116;-10
2022/08/22 06:37:38;;;;;;;6.25;3.95;;;21.70;75.40;;;;;;5057109;28;20021;-11
2022/08/22 06:40:07;;;;;;;7.80;4.30;;;21.80;75.50;;;;;;5057619;28;20032;-10
2022/08/22 06:42:40;;;;;;;5.88;3.67;;;22.00;75.50;;;;;;5057436;28;20029;-11
2022/08/22 06:45:23;;;;;;;6.22;4.03;;;22.20;74.90;;;;;;5056728;28;20025;-11
2022/08/22 06:48:15;;;;;;;6.25;4.22;;;22.40;75.00;;;;;;5056929;28;20029;-10
2022/08/22 06:50:44;;;;;;;9.00;4.47;;;22.50;74.20;;;;;;5056442;28;20112;-11
2022/08/22 06:53:18;;;;;;;4.97;3.53;;;22.60;73.80;;;;;;5056363;28;20128;-11
2022/08/22 06:55:51;;;;;;;7.07;4.82;;;22.70;73.60;;;;;;5056945;28;20415;-11
2022/08/22 06:58:27;;;;;;;6.30;4.15;;;22.80;73.90;;;;;;5057550;28;20029;-10
2022/08/22 07:01:01;;;;;;;6.78;4.05;;;23.00;73.10;;;;;;5056386;28;20021;-11
2022/08/22 07:03:38;;;;;;;6.47;3.67;;;23.20;72.50;;;;;;5056678;28;20108;-13
2022/08/22 07:06:05;;;;;;;8.00;3.28;;;23.30;72.00;;;;;;5056645;28;20422;-11
2022/08/22 07:08:34;;;;;;;4.60;3.42;;;23.40;71.80;;;;;;5055665;28;20037;-10
2022/08/22 07:11:11;;;;;;;4.80;3.10;;;23.70;71.20;;;;;;5056264;28;20028;-10
2022/08/22 07:13:45;;;;;;;3.30;3.00;;;23.80;70.70;;;;;;5056804;28;20033;-10
2022/08/22 07:16:11;;;;;;;5.45;3.47;;;24.10;70.30;;;;;;5056345;28;20029;-11
2022/08/22 07:18:49;;;;;;;5.22;3.47;;;24.20;69.30;;;;;;5056852;28;20074;-11
2022/08/22 07:21:30;;;;;;;5.15;3.47;;;24.40;68.20;;;;;;5057139;28;20040;-11
2022/08/22 07:24:00;;;;;;;5.45;3.85;;;24.40;68.20;;;;;;5056220;28;20423;-11
2022/08/22 07:26:47;;;;;;;6.35;3.70;;;24.60;68.60;;;;;;5056475;28;20041;-10
2022/08/22 07:29:41;;;;;;;5.18;3.22;;;24.90;68.10;;;;;;5056459;28;20028;-10
2022/08/22 07:32:07;;;;;;;6.15;3.53;;;25.20;65.90;;;;;;5056455;28;20025;-11
2022/08/22 07:34:56;;;;;;;3.72;2.60;;;25.50;65.10;;;;;;5056127;28;20539;-10
2022/08/22 07:38:06;;;;;;;6.60;3.17;;;25.70;64.80;;;;;;5049516;28;20086;-11
2022/08/22 07:40:38;;;;;;;4.90;2.90;;;26.00;62.90;;;;;;5056540;28;20024;-11
2022/08/22 07:43:18;;;;;;;4.35;2.90;;;26.30;63.70;;;;;;5055678;28;20037;-11
2022/08/22 07:46:02;;;;;;;4.50;2.78;;;26.50;60.70;;;;;;5055971;28;20402;-10
2022/08/22 07:48:37;;;;;;;3.35;2.40;;;26.80;60.80;;;;;;5056146;28;20100;-10
2022/08/22 07:51:12;;;;;;;3.15;1.90;;;27.00;61.10;;;;;;5055560;28;20033;-10
2022/08/22 07:53:40;;;;;;;4.82;2.00;;;27.30;58.50;;;;;;5055614;28;20507;-11
2022/08/22 07:56:22;;;;;;;2.58;1.90;;;27.60;56.50;;;;;;5055851;28;20029;-11
2022/08/22 07:58:57;;;;;;;2.67;1.77;;;27.80;55.90;;;;;;5055730;28;20078;-10
2022/08/22 08:01:25;;;;;;;2.42;1.77;;;28.10;54.10;;;;;;5055575;28;20029;-11
2022/08/22 08:03:59;;;;;;;1.50;1.30;;;28.30;52.60;;;;;;5055869;28;20071;-10
2022/08/22 08:06:27;;;;;;;9.20;1.80;;;28.50;51.10;;;;;;5055826;28;20029;-11
2022/08/22 08:08:54;;;;;;;4.28;1.63;;;28.70;50.80;;;;;;5055334;28;20028;-11
2022/08/22 08:11:26;;;;;;;7.22;1.60;;;28.90;50.90;;;;;;5055361;28;20044;-11
2022/08/22 08:13:58;;;;;;;3.30;1.30;;;28.90;51.40;;;;;;5055202;28;20101;-11
2022/08/22 08:16:29;;;;;;;1.75;1.42;;;29.10;48.60;;;;;;5055536;28;20060;-10
2022/08/22 08:18:58;;;;;;;2.00;1.25;;;29.40;48.10;;;;;;5055315;28;20021;-11
2022/08/22 08:21:39;;;;;;;2.20;1.60;;;29.60;47.80;;;;;;5055561;28;20033;-11
2022/08/22 08:24:10;;;;;;;1.92;1.50;;;29.90;47.30;;;;;;5055166;28;20025;-11
2022/08/22 08:28:32;;;;;;;1.88;1.33;;;30.10;46.40;;;;;;5055102;28;20116;-11
2022/08/22 08:29:33;;;;;;;2.10;1.60;;;30.30;46.50;;;;;;5055192;28;20376;-11
2022/08/22 08:32:00;;;;;;;1.50;1.40;;;30.50;47.40;;;;;;5055261;28;20031;-11
2022/08/22 08:34:31;;;;;;;2.75;1.50;;;30.60;47.60;;;;;;5056027;28;20024;-11
2022/08/22 08:37:04;;;;;;;3.30;1.50;;;30.80;46.30;;;;;;5054928;28;20124;-10
2022/08/22 08:39:38;;;;;;;;;;;30.90;44.70;;;;;;5055226;28;20029;-11
2022/08/22 08:42:10;;;;;;;2.42;1.60;;;31.00;45.00;;;;;;5055416;28;20014;-10
2022/08/22 08:45:10;;;;;;;1.52;1.42;;;30.90;44.90;;;;;;5054698;28;20029;-11
2022/08/22 08:47:48;;;;;;;2.83;1.98;;;30.70;45.70;;;;;;5055105;28;20587;-10
2022/08/22 08:50:28;;;;;;;2.03;1.60;;;30.60;46.00;;;;;;5054669;28;20025;-11
2022/08/22 08:53:08;;;;;;;3.00;1.60;;;30.50;46.60;;;;;;5054448;28;20397;-11
2022/08/22 08:55:50;;;;;;;2.75;2.03;;;30.70;45.60;;;;;;5054486;28;20519;-11
2022/08/22 08:58:36;;;;;;;3.95;1.85;;;30.80;45.40;;;;;;5054195;28;20029;-11
2022/08/22 09:01:12;;;;;;;3.85;1.70;;;30.90;44.80;;;;;;5054105;28;20115;-12
2022/08/22 09:04:09;;;;;;;3.40;1.50;;;31.20;44.30;;;;;;5054740;28;20029;-11
2022/08/22 09:06:53;;;;;;;1.95;1.33;;;31.40;43.30;;;;;;5054368;28;20037;-11
2022/08/22 09:09:38;;;;;;;3.30;1.55;;;31.40;44.60;;;;;;5054336;28;20025;-11
2022/08/22 09:12:36;;;;;;;8.45;2.03;;;31.90;43.20;;;;;;5054482;28;20043;-11
2022/08/22 09:15:12;;;;;;;1.50;1.40;;;32.30;42.30;;;;;;5030989;28;20065;-11
2022/08/22 09:18:04;;;;;;;2.55;1.23;;;32.50;41.30;;;;;;5054116;28;20033;-11
2022/08/22 09:20:33;;;;;;;1.27;1.10;;;32.70;40.60;;;;;;5052862;28;20051;-11
2022/08/22 09:23:17;;;;;;;3.95;1.75;;;32.80;40.60;;;;;;5054108;28;20041;-11
2022/08/22 09:25:55;;;;;;;4.35;1.60;;;32.90;39.80;;;;;;5054203;28;20100;-10
2022/08/22 09:28:30;;;;;;;2.65;1.30;;;33.10;39.40;;;;;;5054084;28;20029;-11
2022/08/22 09:30:59;;;;;;;2.42;1.30;;;33.30;39.30;;;;;;5053520;28;20120;-11
2022/08/22 09:33:51;;;;;;;3.35;1.60;;;33.40;38.80;;;;;;5053819;28;20051;-10
2022/08/22 09:36:29;;;;;;;6.32;1.50;;;33.30;38.40;;;;;;5053642;28;20131;-11
2022/08/22 09:39:10;;;;;;;3.15;1.70;;;33.40;39.30;;;;;;5053608;28;20025;-12
2022/08/22 09:41:43;;;;;;;2.95;1.50;;;33.50;36.80;;;;;;5053970;28;20428;-11
2022/08/22 09:44:15;;;;;;;;;;;33.40;37.50;;;;;;5054330;28;20025;-11
2022/08/22 09:47:01;;;;;;;1.20;1.10;;;33.00;38.00;;;;;;5053552;28;19912;-10
2022/08/22 09:49:44;;;;;;;2.30;1.35;;;33.00;38.50;;;;;;5053861;28;20028;-11
2022/08/22 09:52:44;;;;;;;3.40;1.27;;;33.00;38.30;;;;;;5053551;28;20035;-11
2022/08/22 09:55:32;;;;;;;1.40;1.30;;;33.10;35.30;;;;;;5053156;28;20029;-10
2022/08/22 09:58:11;;;;;;;1.15;1.05;;;33.40;36.70;;;;;;5053396;28;20104;-11
2022/08/22 10:01:02;;;;;;;1.40;1.25;;;33.70;34.60;;;;;;5052076;28;20036;-11
2022/08/22 10:04:06;;;;;;;2.45;1.35;;;34.20;34.80;;;;;;5053586;28;20027;-11
2022/08/22 10:07:02;;;;;;;3.67;1.52;;;34.60;35.30;;;;;;5053097;28;20115;-10
2022/08/22 10:09:43;;;;;;;2.63;1.90;;;34.90;35.50;;;;;;5052199;28;20532;-11
2022/08/22 10:12:22;;;;;;;2.95;1.40;;;35.20;35.60;;;;;;5053247;28;20033;-12
2022/08/22 10:15:03;;;;;;;3.13;1.73;;;35.30;35.40;;;;;;5053233;28;20029;-11
2022/08/22 10:17:37;;;;;;;1.40;1.30;;;35.30;35.00;;;;;;5053459;28;20095;-10
2022/08/22 10:20:34;;;;;;;1.50;1.38;;;35.30;34.90;;;;;;5053150;28;20021;-11
2022/08/22 10:23:23;;;;;;;1.25;1.15;;;35.30;35.00;;;;;;5053089;28;20128;-11
2022/08/22 10:26:07;;;;;;;1.60;1.50;;;35.50;35.40;;;;;;5054169;28;20075;-11
2022/08/22 10:29:15;;;;;;;4.70;1.67;;;35.70;34.90;;;;;;5053369;28;20024;-11
2022/08/22 10:31:56;;;;;;;3.15;1.67;;;35.90;34.90;;;;;;5043709;28;20370;-12
2022/08/22 10:34:37;;;;;;;3.85;1.50;;;36.00;35.00;;;;;;5053302;28;20112;-12
2022/08/22 10:37:35;;;;;;;4.10;1.73;;;36.00;34.10;;;;;;5052707;28;20032;-11
2022/08/22 10:40:23;;;;;;;1.50;1.40;;;36.10;34.90;;;;;;5053211;28;20032;-10
2022/08/22 10:43:01;;;;;;;3.05;1.70;;;36.30;34.90;;;;;;5052968;28;20029;-11
2022/08/22 10:45:36;;;;;;;2.00;1.67;;;36.70;32.90;;;;;;5053084;28;20036;-11
2022/08/22 10:48:04;;;;;;;2.33;1.40;;;37.30;31.70;;;;;;5052014;28;20025;-12
2022/08/22 10:50:42;;;;;;;1.75;1.65;;;37.60;32.00;;;;;;5053125;28;20029;-11
2022/08/22 10:53:29;;;;;;;3.20;1.60;;;37.90;31.90;;;;;;5052548;28;20132;-11
2022/08/22 10:56:05;;;;;;;2.92;1.40;;;38.00;31.70;;;;;;5052682;28;20481;-11
2022/08/22 10:58:35;;;;;;;1.88;1.70;;;37.90;31.50;;;;;;5052772;28;20120;-11
2022/08/22 11:01:06;;;;;;;1.75;1.35;;;37.80;31.30;;;;;;5052517;28;20057;-11
2022/08/22 11:03:42;;;;;;;3.53;1.50;;;37.60;31.90;;;;;;5051326;28;20388;-11
2022/08/22 11:06:23;;;;;;;2.35;1.67;;;37.30;32.10;;;;;;5053027;28;20029;-11
2022/08/22 11:08:59;;;;;;;2.28;1.55;;;37.40;32.20;;;;;;5052656;28;20051;-12
2022/08/22 11:11:49;;;;;;;2.83;1.67;;;37.40;32.20;;;;;;5052595;28;20053;-11
2022/08/22 11:14:34;;;;;;;1.58;1.08;;;37.50;31.90;;;;;;5052486;28;20025;-11
2022/08/22 11:17:05;;;;;;;2.28;1.70;;;37.80;31.60;;;;;;5052405;28;20082;-11
2022/08/22 11:19:54;;;;;;;1.83;1.20;;;38.00;31.00;;;;;;5052929;28;20033;-11
2022/08/22 11:22:51;;;;;;;2.38;1.45;;;38.10;30.40;;;;;;5055930;28;20256;-11
2022/08/22 11:25:29;;;;;;;1.63;1.20;;;38.40;29.50;;;;;;5056300;28;20044;-11
2022/08/22 11:28:13;;;;;;;2.05;1.55;;;38.70;27.70;;;;;;5056565;28;20107;-11
2022/08/22 11:31:02;;;;;;;1.40;1.30;;;38.50;29.30;;;;;;5056285;28;20109;-11
2022/08/22 11:33:34;;;;;;;1.92;1.40;;;38.80;26.60;;;;;;5037271;28;20563;-11
2022/08/22 11:36:25;;;;;;;5.18;1.48;;;38.90;28.20;;;;;;5054832;28;20489;-10
2022/08/22 11:39:07;;;;;;;1.20;1.20;;;38.80;28.40;;;;;;5055898;28;20388;-11
2022/08/22 11:41:52;;;;;;;1.50;1.10;;;38.70;27.80;;;;;;5056283;28;20028;-11
2022/08/22 11:44:30;;;;;;;1.73;1.50;;;38.70;28.30;;;;;;5056057;28;20388;-11
2022/08/22 11:47:00;;;;;;;1.08;1.08;;;38.90;28.90;;;;;;5056030;28;20029;-11
2022/08/22 11:49:32;;;;;;;1.45;1.35;;;39.10;28.50;;;;;;5056171;28;20025;-11
2022/08/22 11:52:16;;;;;;;1.42;1.33;;;39.50;26.60;;;;;;5055754;28;20033;-11
2022/08/22 11:54:55;;;;;;;1.95;1.30;;;39.90;27.00;;;;;;5055718;28;20041;-11
2022/08/22 11:57:39;;;;;;;1.95;1.50;;;39.90;26.90;;;;;;5055627;28;20040;-11
2022/08/22 12:00:27;;;;;;;1.70;1.33;;;39.90;26.70;;;;;;5055543;28;20032;-11
2022/08/22 12:03:27;;;;;;;1.45;1.27;;;40.30;27.30;;;;;;5055417;28;20124;-11
2022/08/22 12:06:20;;;;;;;1.35;1.10;;;40.90;26.80;;;;;;5055519;28;20492;-11
2022/08/22 12:09:07;;;;;;;3.58;1.58;;;41.50;26.80;;;;;;5055482;28;20075;-11
2022/08/22 12:11:54;;;;;;;1.38;1.25;;;41.90;26.10;;;;;;5055434;28;20058;-11
2022/08/22 12:14:43;;;;;;;2.13;1.33;;;42.10;26.50;;;;;;5055580;28;20151;-11
2022/08/22 12:17:27;;;;;;;2.05;1.30;;;42.30;26.70;;;;;;5055071;28;20071;-11
2022/08/22 12:20:16;;;;;;;1.38;1.23;;;42.60;26.40;;;;;;5055545;28;20063;-11
2022/08/22 12:22:57;;;;;;;4.30;1.58;;;42.70;26.30;;;;;;5055526;28;20044;-11
2022/08/22 12:25:44;;;;;;;2.35;1.50;;;42.80;25.00;;;;;;5055099;28;20102;-11
2022/08/22 12:28:17;;;;;;;1.65;1.30;;;42.60;25.50;;;;;;5055137;28;20037;-11
2022/08/22 12:30:52;;;;;;;2.08;1.23;;;42.80;25.90;;;;;;5055280;28;20033;-11
2022/08/22 12:33:44;;;;;;;3.22;1.52;;;42.80;25.60;;;;;;5054252;28;20100;-10
2022/08/22 12:36:09;;;;;;;;;;;42.70;25.10;;;;;;5053320;28;20045;-10
2022/08/22 12:38:47;;;;;;;1.65;1.55;;;42.10;23.80;;;;;;5055084;28;19904;-11
2022/08/22 12:41:25;;;;;;;2.00;1.50;;;41.60;25.40;;;;;;5054846;28;20029;-11
2022/08/22 12:44:20;;;;;;;2.00;1.40;;;41.00;25.80;;;;;;5054793;28;20108;-11
2022/08/22 12:47:01;;;;;;;3.17;1.58;;;40.90;26.10;;;;;;5055102;28;20032;-10
2022/08/22 12:50:05;;;;;;;1.98;1.40;;;40.90;26.00;;;;;;5054725;28;20024;-10
2022/08/22 12:52:42;;;;;;;1.33;1.20;;;40.70;27.10;;;;;;5054678;28;20526;-11
2022/08/22 12:55:33;;;;;;;1.85;1.30;;;40.40;27.60;;;;;;5054668;28;20110;-10
2022/08/22 12:58:19;;;;;;;1.65;1.25;;;40.70;25.90;;;;;;5054562;28;20151;-11
2022/08/22 13:00:48;;;;;;;1.77;1.20;;;41.10;24.90;;;;;;5054294;28;20473;-11
2022/08/22 13:03:45;;;;;;;1.73;1.20;;;41.00;25.30;;;;;;5054371;28;20025;-11
2022/08/22 13:06:41;;;;;;;1.25;1.20;;;40.90;26.90;;;;;;5052078;28;20052;-11
2022/08/22 13:09:10;;;;;;;2.05;1.60;;;40.70;25.80;;;;;;5017622;28;20041;-11
2022/08/22 13:11:38;;;;;;;1.80;1.40;;;41.00;24.60;;;;;;5054319;28;20508;-11
2022/08/22 13:14:07;;;;;;;1.15;1.10;;;41.40;24.60;;;;;;5054493;28;20029;-11
2022/08/22 13:16:41;;;;;;;1.60;1.50;;;41.80;24.40;;;;;;5054082;28;20037;-10
2022/08/22 13:19:16;;;;;;;1.20;1.10;;;41.90;24.20;;;;;;5054083;28;21296;-11
2022/08/22 13:21:57;;;;;;;1.40;1.30;;;41.90;23.90;;;;;;5054404;28;20017;-11
2022/08/22 13:24:54;;;;;;;3.37;1.40;;;41.70;23.70;;;;;;5054081;28;20021;-10
2022/08/22 13:27:35;;;;;;;1.80;1.20;;;41.60;23.50;;;;;;5054302;28;20123;-10
2022/08/22 13:30:08;;;;;;;1.90;1.08;;;41.50;23.80;;;;;;5054103;28;20032;-11
2022/08/22 13:33:05;;;;;;;1.55;1.40;;;41.80;24.20;;;;;;5053900;28;20033;-11
2022/08/22 13:35:43;;;;;;;1.83;1.20;;;42.20;22.10;;;;;;5052425;28;20041;-11
2022/08/22 13:38:19;;;;;;;1.98;1.40;;;42.30;22.50;;;;;;5054051;28;20029;-11
2022/08/22 13:40:48;;;;;;;1.73;1.23;;;42.40;22.90;;;;;;5053817;28;20021;-11
2022/08/22 13:43:22;;;;;;;2.42;1.20;;;42.30;23.00;;;;;;5054227;28;20033;-10
2022/08/22 13:45:57;;;;;;;1.05;1.00;;;42.30;22.30;;;;;;5053585;28;20485;-11
2022/08/22 13:48:28;;;;;;;0.80;0.80;;;42.10;22.90;;;;;;5053820;28;20056;-12
2022/08/22 13:51:13;;;;;;;1.30;1.20;;;41.90;23.20;;;;;;5053831;28;20036;-14
2022/08/22 13:53:44;;;;;;;2.13;1.45;;;41.70;23.90;;;;;;5053578;28;20049;-13
2022/08/22 13:56:21;;;;;;;1.80;1.20;;;41.30;23.60;;;;;;5053741;28;20037;-11
2022/08/22 13:58:55;;;;;;;2.13;1.50;;;40.50;23.20;;;;;;5053236;28;20520;-12
2022/08/22 14:01:21;;;;;;;1.25;1.15;;;39.70;25.90;;;;;;5053273;28;20074;-12
2022/08/22 14:03:49;;;;;;;1.70;1.40;;;39.20;26.20;;;;;;5053317;28;20501;-12